createdAt,value
2018-04-14T00:00:56.167Z,11.15
2018-04-14T00:02:02.220Z,11.18
2018-04-14T00:03:08.695Z,11.17
2018-04-14T00:04:15.006Z,11.11
2018-04-14T00:05:20.981Z,11.13
2018-04-14T00:06:27.223Z,11.07
2018-04-14T00:07:33.552Z,11.03
2018-04-14T00:08:39.864Z,11.01
2018-04-14T00:09:46.151Z,11.02
2018-04-14T00:10:52.490Z,11.01
2018-04-14T00:11:58.772Z,11.02
2018-04-14T00:13:05.074Z,11.02
2018-04-14T00:14:11.919Z,11.02
2018-04-14T00:15:18.258Z,10.99
2018-04-14T00:16:24.543Z,10.97
2018-04-14T00:17:30.866Z,10.96
2018-04-14T00:18:43.125Z,10.94
2018-04-14T00:19:49.307Z,10.93
2018-04-14T00:20:55.324Z,10.94
2018-04-14T00:22:06.672Z,10.92
2018-04-14T00:23:16.938Z,10.93
2018-04-14T00:24:25.236Z,10.92
2018-04-14T00:25:31.812Z,10.89
2018-04-14T00:26:38.142Z,10.94
2018-04-14T00:27:44.451Z,10.92
2018-04-14T00:28:50.847Z,10.93
2018-04-14T00:29:57.976Z,10.96
2018-04-14T00:31:05.396Z,10.96
2018-04-14T00:32:11.633Z,10.94
2018-04-14T00:33:17.937Z,10.97
2018-04-14T00:34:24.247Z,10.98
2018-04-14T00:35:31.436Z,10.98
2018-04-14T00:36:37.814Z,10.99
2018-04-14T00:37:44.129Z,10.99
2018-04-14T00:38:52.107Z,11.00
2018-04-14T00:39:58.416Z,11.00
2018-04-14T00:41:04.688Z,11.02
2018-04-14T00:42:11.013Z,11.01
2018-04-14T00:43:17.316Z,10.99
2018-04-14T00:44:23.616Z,11.03
2018-04-14T00:45:33.781Z,11.00
2018-04-14T00:46:40.050Z,11.01
2018-04-14T00:47:46.168Z,11.00
2018-04-14T00:48:52.693Z,11.03
2018-04-14T00:49:59.161Z,11.03
2018-04-14T00:51:06.958Z,11.00
2018-04-14T00:52:13.245Z,10.99
2018-04-14T00:53:30.450Z,10.97
2018-04-14T00:54:36.263Z,10.97
2018-04-14T00:55:42.472Z,10.97
2018-04-14T00:56:48.746Z,10.94
2018-04-14T00:57:55.660Z,10.94
2018-04-14T00:59:01.937Z,10.91
2018-04-14T01:00:08.258Z,10.94
2018-04-14T01:01:14.211Z,10.93
2018-04-14T01:02:21.198Z,10.90
2018-04-14T01:03:27.507Z,10.93
2018-04-14T01:04:34.502Z,10.92
2018-04-14T01:05:41.996Z,10.94
2018-04-14T01:06:49.160Z,10.91
2018-04-14T01:07:55.437Z,10.89
2018-04-14T01:09:01.721Z,10.91
2018-04-14T01:10:07.724Z,10.93
2018-04-14T01:11:13.722Z,10.90
2018-04-14T01:12:20.015Z,10.94
2018-04-14T01:13:26.271Z,10.95
2018-04-14T01:14:32.558Z,10.92
2018-04-14T01:15:38.887Z,10.93
2018-04-14T01:16:45.163Z,10.94
2018-04-14T01:17:51.319Z,10.94
2018-04-14T01:18:57.935Z,10.94
2018-04-14T01:20:04.291Z,10.93
2018-04-14T01:21:10.554Z,10.91
2018-04-14T01:22:17.531Z,10.89
2018-04-14T01:23:29.942Z,10.90
2018-04-14T01:24:35.919Z,10.90
2018-04-14T01:25:42.247Z,10.91
2018-04-14T01:26:48.459Z,10.91
2018-04-14T01:27:54.744Z,10.93
2018-04-14T01:29:01.066Z,10.92
2018-04-14T01:30:07.366Z,10.92
2018-04-14T01:31:13.684Z,10.92
2018-04-14T01:32:19.991Z,10.93
2018-04-14T01:33:26.300Z,10.95
2018-04-14T01:34:32.638Z,10.92
2018-04-14T01:35:38.927Z,10.94
2018-04-14T01:36:45.237Z,10.93
2018-04-14T01:37:53.017Z,10.90
2018-04-14T01:38:59.345Z,10.91
2018-04-14T01:40:05.771Z,10.91
2018-04-14T01:41:12.522Z,10.92
2018-04-14T01:42:18.586Z,10.94
2018-04-14T01:43:25.564Z,10.93
2018-04-14T01:44:31.533Z,10.93
2018-04-14T01:45:37.876Z,10.96
2018-04-14T01:46:44.228Z,10.96
2018-04-14T01:47:50.537Z,10.96
2018-04-14T01:48:56.843Z,10.97
2018-04-14T01:50:02.828Z,10.97
2018-04-14T01:51:09.122Z,10.95
2018-04-14T01:52:15.471Z,10.94
2018-04-14T01:53:22.050Z,10.95
2018-04-14T01:54:28.387Z,10.92
2018-04-14T01:55:34.661Z,10.94
2018-04-14T01:56:40.922Z,10.98
2018-04-14T01:57:52.227Z,10.96
2018-04-14T01:58:58.534Z,10.93
2018-04-14T02:00:03.954Z,10.92
2018-04-14T02:01:10.341Z,10.91
2018-04-14T02:02:16.894Z,10.86
2018-04-14T02:03:23.627Z,10.88
2018-04-14T02:04:29.994Z,10.90
2018-04-14T02:05:36.306Z,10.87
2018-04-14T02:06:42.283Z,10.86
2018-04-14T02:07:48.620Z,10.85
2018-04-14T02:08:54.613Z,10.85
2018-04-14T02:10:00.836Z,10.86
2018-04-14T02:11:06.654Z,10.87
2018-04-14T02:12:12.969Z,10.90
2018-04-14T02:13:20.934Z,10.90
2018-04-14T02:14:27.121Z,10.88
2018-04-14T02:15:33.442Z,10.92
2018-04-14T02:16:39.750Z,10.93
2018-04-14T02:17:46.039Z,10.95
2018-04-14T02:18:52.375Z,10.94
2018-04-14T02:19:59.172Z,10.95
2018-04-14T02:21:05.382Z,10.94
2018-04-14T02:22:11.365Z,10.95
2018-04-14T02:23:17.577Z,10.95
2018-04-14T02:24:23.915Z,10.94
2018-04-14T02:25:30.242Z,10.94
2018-04-14T02:26:36.532Z,10.94
2018-04-14T02:27:42.848Z,10.98
2018-04-14T02:28:50.335Z,10.97
2018-04-14T02:29:58.395Z,10.96
2018-04-14T02:31:04.671Z,10.98
2018-04-14T02:32:10.942Z,10.99
2018-04-14T02:33:17.159Z,10.99
2018-04-14T02:34:23.402Z,10.99
2018-04-14T02:35:29.695Z,11.01
2018-04-14T02:36:36.010Z,11.00
2018-04-14T02:37:42.319Z,10.98
2018-04-14T02:38:48.603Z,10.98
2018-04-14T02:39:54.886Z,10.98
2018-04-14T02:41:01.155Z,10.98
2018-04-14T02:42:07.373Z,10.99
2018-04-14T02:43:13.414Z,11.01
2018-04-14T02:44:19.855Z,11.00
2018-04-14T02:45:26.907Z,11.04
2018-04-14T02:46:32.945Z,11.02
2018-04-14T02:47:39.224Z,11.05
2018-04-14T02:48:45.563Z,11.06
2018-04-14T02:49:51.836Z,11.04
2018-04-14T02:50:58.047Z,11.04
2018-04-14T02:52:04.420Z,11.06
2018-04-14T02:53:10.927Z,11.09
2018-04-14T02:54:17.202Z,11.09
2018-04-14T02:55:23.529Z,11.05
2018-04-14T02:56:30.286Z,11.05
2018-04-14T02:57:36.519Z,11.05
2018-04-14T02:58:42.747Z,11.01
2018-04-14T02:59:49.622Z,11.01
2018-04-14T03:00:55.512Z,11.00
2018-04-14T03:02:01.805Z,11.04
2018-04-14T03:03:08.149Z,11.03
2018-04-14T03:04:14.338Z,11.03
2018-04-14T03:05:20.621Z,11.02
2018-04-14T03:06:26.943Z,11.06
2018-04-14T03:07:33.920Z,11.09
2018-04-14T03:08:42.700Z,11.08
2018-04-14T03:09:48.940Z,11.10
2018-04-14T03:10:55.143Z,11.06
2018-04-14T03:12:01.488Z,11.03
2018-04-14T03:13:07.952Z,11.05
2018-04-14T03:14:14.195Z,11.01
2018-04-14T03:15:20.502Z,11.04
2018-04-14T03:16:26.826Z,11.06
2018-04-14T03:17:33.150Z,11.10
2018-04-14T03:18:39.580Z,11.12
2018-04-14T03:19:45.870Z,11.09
2018-04-14T03:20:52.446Z,11.10
2018-04-14T03:21:58.673Z,11.07
2018-04-14T03:23:05.018Z,11.08
2018-04-14T03:24:11.299Z,11.10
2018-04-14T03:25:17.379Z,11.05
2018-04-14T03:26:23.602Z,11.03
2018-04-14T03:27:29.851Z,11.03
2018-04-14T03:28:37.311Z,11.03
2018-04-14T03:29:45.996Z,11.06
2018-04-14T03:30:52.335Z,11.04
2018-04-14T03:31:58.659Z,11.07
2018-04-14T03:33:04.989Z,11.06
2018-04-14T03:34:11.383Z,11.08
2018-04-14T03:35:17.689Z,11.06
2018-04-14T03:36:26.137Z,11.04
2018-04-14T03:37:31.722Z,11.05
2018-04-14T03:38:37.989Z,11.04
2018-04-14T03:39:44.849Z,11.07
2018-04-14T03:40:51.106Z,11.08
2018-04-14T03:41:57.877Z,11.10
2018-04-14T03:43:04.276Z,11.11
2018-04-14T03:44:10.573Z,11.09
2018-04-14T03:45:16.850Z,11.12
2018-04-14T03:46:23.162Z,11.07
2018-04-14T03:47:29.396Z,11.07
2018-04-14T03:48:35.687Z,11.06
2018-04-14T03:49:45.747Z,11.07
2018-04-14T03:50:54.726Z,11.07
2018-04-14T03:52:01.757Z,11.02
2018-04-14T03:53:08.002Z,11.03
2018-04-14T03:54:14.415Z,11.02
2018-04-14T03:55:20.730Z,11.03
2018-04-14T03:56:27.022Z,11.05
2018-04-14T03:57:33.352Z,11.06
2018-04-14T03:58:39.990Z,11.04
2018-04-14T03:59:46.238Z,11.02
2018-04-14T04:00:52.488Z,11.03
2018-04-14T04:01:58.503Z,11.02
2018-04-14T04:03:04.993Z,11.04
2018-04-14T04:04:11.238Z,11.03
2018-04-14T04:05:17.702Z,11.05
2018-04-14T04:06:24.046Z,11.09
2018-04-14T04:07:31.612Z,11.06
2018-04-14T04:08:39.475Z,11.05
2018-04-14T04:09:45.756Z,11.03
2018-04-14T04:10:58.353Z,11.08
2018-04-14T04:12:05.417Z,11.09
2018-04-14T04:13:11.758Z,11.05
2018-04-14T04:14:17.767Z,11.03
2018-04-14T04:15:23.707Z,10.99
2018-04-14T04:16:29.954Z,10.95
2018-04-14T04:17:36.289Z,10.94
2018-04-14T04:18:53.908Z,10.96
2018-04-14T04:20:11.017Z,10.98
2018-04-14T04:23:08.385Z,11.00
2018-04-14T04:24:26.434Z,11.00
2018-04-14T04:25:40.447Z,10.95
2018-04-14T04:26:46.209Z,10.96
2018-04-14T04:27:51.926Z,10.94
2018-04-14T04:28:57.575Z,10.93
2018-04-14T04:30:03.316Z,10.93
2018-04-14T04:31:09.449Z,10.93
2018-04-14T04:32:15.641Z,10.93
2018-04-14T04:33:21.289Z,10.94
2018-04-14T04:34:26.981Z,10.95
2018-04-14T04:35:32.717Z,10.94
2018-04-14T04:36:39.291Z,10.93
2018-04-14T04:37:45.103Z,10.92
2018-04-14T04:38:50.811Z,10.95
2018-04-14T04:39:56.145Z,10.92
2018-04-14T04:41:01.951Z,10.92
2018-04-14T04:42:08.360Z,10.92
2018-04-14T04:43:14.619Z,10.92
2018-04-14T04:44:21.058Z,10.93
2018-04-14T04:45:27.191Z,10.92
2018-04-14T04:46:32.847Z,10.92
2018-04-14T04:47:41.536Z,10.91
2018-04-14T04:48:47.305Z,10.97
2018-04-14T04:49:55.430Z,10.99
2018-04-14T04:51:01.223Z,10.98
2018-04-14T04:52:07.528Z,10.99
2018-04-14T04:53:13.187Z,10.98
2018-04-14T04:54:21.085Z,11.00
2018-04-14T04:55:28.619Z,10.99
2018-04-14T04:56:34.426Z,10.98
2018-04-14T04:57:40.248Z,10.99
2018-04-14T04:58:45.970Z,11.00
2018-04-14T04:59:51.667Z,11.00
2018-04-14T05:00:57.375Z,10.98
2018-04-14T05:02:02.807Z,10.99
2018-04-14T05:03:08.525Z,10.98
2018-04-14T05:04:15.576Z,11.00
2018-04-14T05:05:21.333Z,11.05
2018-04-14T05:06:27.103Z,11.08
2018-04-14T05:07:32.765Z,11.04
2018-04-14T05:08:38.472Z,11.00
2018-04-14T05:09:44.334Z,10.99
2018-04-14T05:10:50.131Z,10.97
2018-04-14T05:11:56.109Z,10.96
2018-04-14T05:13:02.201Z,10.94
2018-04-14T05:14:07.979Z,10.95
2018-04-14T05:15:13.713Z,10.95
2018-04-14T05:16:19.532Z,10.95
2018-04-14T05:17:25.198Z,10.95
2018-04-14T05:18:31.002Z,10.93
2018-04-14T05:19:36.994Z,10.93
2018-04-14T05:20:42.663Z,10.94
2018-04-14T05:21:48.372Z,10.92
2018-04-14T05:22:54.084Z,10.89
2018-04-14T05:23:59.817Z,10.89
2018-04-14T05:25:05.442Z,10.92
2018-04-14T05:26:11.161Z,10.95
2018-04-14T05:27:16.878Z,10.92
2018-04-14T05:28:22.663Z,10.90
2018-04-14T05:29:28.423Z,10.91
2018-04-14T05:30:34.154Z,10.91
2018-04-14T05:31:39.859Z,10.92
2018-04-14T05:32:45.579Z,10.94
2018-04-14T05:33:51.284Z,10.95
2018-04-14T05:34:58.841Z,10.96
2018-04-14T05:36:05.154Z,10.99
2018-04-14T05:37:10.547Z,11.04
2018-04-14T05:38:16.210Z,11.07
2018-04-14T05:39:21.870Z,11.09
2018-04-14T05:40:27.659Z,11.09
2018-04-14T05:41:34.176Z,11.13
2018-04-14T05:42:40.169Z,11.15
2018-04-14T05:43:46.447Z,11.15
2018-04-14T05:44:52.132Z,11.21
2018-04-14T05:45:58.505Z,11.21
2018-04-14T05:47:03.895Z,11.21
2018-04-14T05:48:10.711Z,11.24
2018-04-14T05:49:16.822Z,11.30
2018-04-14T05:50:23.364Z,11.37
2018-04-14T05:51:33.602Z,11.42
2018-04-14T05:52:39.446Z,11.41
2018-04-14T05:53:46.555Z,11.42
2018-04-14T05:54:52.191Z,11.41
2018-04-14T05:56:00.454Z,11.42
2018-04-14T05:57:06.074Z,11.47
2018-04-14T05:58:11.830Z,11.48
2018-04-14T05:59:18.489Z,11.48
2018-04-14T06:00:24.618Z,11.46
2018-04-14T06:01:31.082Z,11.49
2018-04-14T06:02:37.882Z,11.50
2018-04-14T06:03:44.653Z,11.55
2018-04-14T06:04:50.867Z,11.58
2018-04-14T06:05:58.254Z,11.58
2018-04-14T06:07:07.174Z,11.60
2018-04-14T06:08:13.433Z,11.57
2018-04-14T06:09:20.666Z,11.63
2018-04-14T06:10:27.462Z,11.61
2018-04-14T06:11:34.534Z,11.60
2018-04-14T06:12:41.242Z,11.65
2018-04-14T06:13:48.344Z,11.66
2018-04-14T06:14:54.671Z,11.63
2018-04-14T06:16:01.458Z,11.63
2018-04-14T06:17:08.426Z,11.69
2018-04-14T06:18:14.798Z,11.70
2018-04-14T06:19:20.900Z,11.67
2018-04-14T06:20:27.098Z,11.66
2018-04-14T06:21:33.952Z,11.69
2018-04-14T06:22:41.108Z,11.63
2018-04-14T06:23:48.721Z,11.66
2018-04-14T06:24:55.173Z,11.73
2018-04-14T06:26:01.247Z,11.67
2018-04-14T06:27:07.503Z,11.65
2018-04-14T06:28:13.880Z,11.66
2018-04-14T06:29:20.216Z,11.76
2018-04-14T06:30:26.509Z,11.80
2018-04-14T06:31:32.628Z,11.84
2018-04-14T06:32:39.479Z,11.79
2018-04-14T06:33:45.834Z,11.87
2018-04-14T06:34:51.758Z,11.85
2018-04-14T06:35:57.695Z,11.88
2018-04-14T06:37:04.496Z,11.83
2018-04-14T06:38:12.311Z,11.82
2018-04-14T06:39:19.276Z,11.86
2018-04-14T06:40:30.774Z,11.90
2018-04-14T06:41:37.152Z,11.88
2018-04-14T06:42:42.980Z,11.85
2018-04-14T06:43:48.799Z,11.88
2018-04-14T06:44:54.475Z,11.93
2018-04-14T06:46:00.141Z,11.91
2018-04-14T06:47:06.828Z,11.90
2018-04-14T06:48:13.270Z,11.91
2018-04-14T06:49:18.983Z,11.93
2018-04-14T06:50:24.702Z,11.97
2018-04-14T06:51:30.384Z,11.95
2018-04-14T06:52:36.054Z,11.90
2018-04-14T06:53:41.755Z,11.90
2018-04-14T06:54:47.482Z,11.88
2018-04-14T06:55:53.191Z,11.96
2018-04-14T06:56:59.077Z,11.94
2018-04-14T06:58:04.752Z,11.95
2018-04-14T06:59:18.329Z,11.96
2018-04-14T07:00:23.978Z,12.01
2018-04-14T07:01:29.616Z,11.96
2018-04-14T07:02:35.926Z,11.94
2018-04-14T07:03:42.555Z,11.96
2018-04-14T07:04:48.281Z,11.96
2018-04-14T07:05:53.792Z,12.00
2018-04-14T07:06:59.470Z,12.06
2018-04-14T07:08:05.041Z,12.06
2018-04-14T07:09:10.752Z,12.07
2018-04-14T07:10:16.239Z,12.07
2018-04-14T07:11:21.923Z,12.09
2018-04-14T07:12:27.615Z,12.03
2018-04-14T07:13:33.286Z,12.08
2018-04-14T07:14:41.403Z,12.20
2018-04-14T07:15:47.004Z,12.19
2018-04-14T07:16:52.701Z,12.22
2018-04-14T07:17:58.407Z,12.19
2018-04-14T07:19:04.063Z,12.17
2018-04-14T07:20:14.238Z,12.12
2018-04-14T07:21:21.334Z,12.12
2018-04-14T07:22:26.984Z,12.12
2018-04-14T07:23:32.691Z,12.17
2018-04-14T07:24:38.543Z,12.18
2018-04-14T07:25:44.239Z,12.21
2018-04-14T07:26:49.903Z,12.26
2018-04-14T07:27:55.818Z,12.27
2018-04-14T07:29:02.177Z,12.30
2018-04-14T07:30:08.689Z,12.32
2018-04-14T07:31:15.771Z,12.36
2018-04-14T07:32:21.493Z,12.41
2018-04-14T07:33:27.353Z,12.38
2018-04-14T07:34:32.815Z,12.40
2018-04-14T07:35:38.578Z,12.44
2018-04-14T07:36:44.241Z,12.45
2018-04-14T07:37:51.330Z,12.51
2018-04-14T07:38:56.970Z,12.55
2018-04-14T07:40:02.429Z,12.54
2018-04-14T07:41:11.909Z,12.55
2018-04-14T07:42:20.350Z,12.59
2018-04-14T07:43:25.995Z,12.64
2018-04-14T07:44:31.716Z,12.68
2018-04-14T07:45:37.407Z,12.70
2018-04-14T07:46:43.077Z,12.75
2018-04-14T07:47:48.806Z,12.83
2018-04-14T07:48:54.475Z,12.84
2018-04-14T07:50:01.111Z,12.79
2018-04-14T07:51:06.961Z,12.83
2018-04-14T07:52:12.690Z,12.85
2018-04-14T07:53:19.031Z,12.90
2018-04-14T07:54:24.726Z,12.86
2018-04-14T07:55:30.466Z,12.89
2018-04-14T07:56:36.135Z,12.92
2018-04-14T07:57:42.332Z,12.91
2018-04-14T07:58:48.168Z,12.91
2018-04-14T07:59:54.038Z,12.98
2018-04-14T08:11:54.935Z,13.52
2018-04-14T08:13:05.798Z,13.51
2018-04-14T08:14:16.445Z,13.49
2018-04-14T08:15:27.110Z,13.54
2018-04-14T08:25:15.036Z,13.99
2018-04-14T08:26:20.703Z,14.12
2018-04-14T08:27:28.871Z,14.21
2018-04-14T08:28:34.930Z,14.34
2018-04-14T08:29:40.975Z,14.54
2018-04-14T08:37:16.014Z,14.40
2018-04-14T08:38:29.864Z,14.48
2018-04-14T08:39:36.097Z,14.63
2018-04-14T08:40:43.402Z,14.70
2018-04-14T08:41:49.179Z,14.88
2018-04-14T08:42:55.628Z,15.01
2018-04-14T08:44:02.613Z,15.09
2018-04-14T08:45:08.394Z,15.20
2018-04-14T08:46:14.121Z,15.39
2018-04-14T08:48:06.105Z,15.26
2018-04-14T08:49:13.750Z,15.37
2018-04-14T08:50:19.452Z,15.47
2018-04-14T08:51:30.260Z,15.60
2018-04-14T08:52:39.500Z,15.69
2018-04-14T08:53:48.394Z,15.72
2018-04-14T08:54:54.046Z,15.78
2018-04-14T08:56:00.334Z,15.78
2018-04-14T08:57:05.940Z,15.82
2018-04-14T08:58:11.687Z,15.93
2018-04-14T08:59:17.362Z,15.95
2018-04-14T09:00:23.039Z,16.01
2018-04-14T09:01:33.467Z,16.00
2018-04-14T09:02:39.138Z,16.08
2018-04-14T09:03:47.515Z,16.18
2018-04-14T09:05:16.938Z,16.19
2018-04-14T09:06:23.547Z,16.33
2018-04-14T09:07:29.388Z,16.37
2018-04-14T09:08:35.099Z,16.41
2018-04-14T09:09:40.806Z,16.41
2018-04-14T09:10:49.388Z,16.25
2018-04-14T09:11:55.026Z,16.42
2018-04-14T09:13:00.978Z,16.26
2018-04-14T09:14:07.956Z,16.35
2018-04-14T09:15:15.803Z,16.64
2018-04-14T09:16:21.527Z,16.51
2018-04-14T09:17:27.740Z,16.68
2018-04-14T09:18:33.953Z,16.75
2018-04-14T09:19:40.283Z,16.81
2018-04-14T09:20:46.355Z,16.73
2018-04-14T09:21:52.557Z,16.74
2018-04-14T09:22:58.783Z,16.56
2018-04-14T09:24:05.108Z,16.36
2018-04-14T09:25:11.402Z,16.39
2018-04-14T09:26:17.675Z,16.48
2018-04-14T09:27:23.906Z,16.53
2018-04-14T09:28:35.854Z,16.71
2018-04-14T09:29:43.141Z,16.97
2018-04-14T09:30:50.511Z,17.12
2018-04-14T09:31:56.502Z,17.34
2018-04-14T09:33:02.815Z,17.38
2018-04-14T09:34:09.109Z,17.20
2018-04-14T09:35:15.411Z,17.21
2018-04-14T09:36:22.392Z,17.28
2018-04-14T09:37:28.710Z,17.24
2018-04-14T09:38:34.711Z,17.15
2018-04-14T09:39:40.999Z,17.24
2018-04-14T09:40:50.210Z,17.42
2018-04-14T09:41:56.301Z,17.35
2018-04-14T09:43:02.626Z,17.10
2018-04-14T09:44:08.832Z,17.00
2018-04-14T09:45:14.834Z,16.98
2018-04-14T09:46:23.959Z,17.07
2018-04-14T09:47:30.396Z,17.13
2018-04-14T09:48:36.891Z,17.27
2018-04-14T09:49:42.886Z,17.42
2018-04-14T09:50:49.195Z,17.33
2018-04-14T09:51:55.453Z,17.34
2018-04-14T09:53:01.800Z,17.38
2018-04-14T09:54:09.227Z,17.40
2018-04-14T09:55:15.454Z,17.42
2018-04-14T09:56:21.727Z,17.43
2018-04-14T09:57:28.716Z,17.41
2018-04-14T09:58:35.055Z,17.45
2018-04-14T09:59:41.413Z,17.68
2018-04-14T10:00:53.388Z,17.70
2018-04-14T10:02:02.206Z,17.77
2018-04-14T10:03:17.677Z,17.79
2018-04-14T10:04:23.703Z,17.49
2018-04-14T10:05:30.071Z,17.55
2018-04-14T10:06:36.362Z,17.70
2018-04-14T10:07:42.662Z,17.70
2018-04-14T10:08:48.983Z,17.61
2018-04-14T10:09:55.302Z,17.63
2018-04-14T10:11:01.535Z,17.67
2018-04-14T10:12:07.834Z,17.57
2018-04-14T10:13:14.106Z,17.62
2018-04-14T10:14:20.339Z,17.77
2018-04-14T10:15:26.534Z,17.81
2018-04-14T10:16:35.105Z,17.84
2018-04-14T10:17:41.782Z,17.91
2018-04-14T10:18:48.039Z,17.74
2018-04-14T10:19:56.032Z,17.69
2018-04-14T10:21:02.347Z,17.75
2018-04-14T10:22:09.430Z,17.96
2018-04-14T10:23:15.643Z,18.00
2018-04-14T10:24:21.846Z,17.83
2018-04-14T10:25:28.053Z,17.97
2018-04-14T10:26:34.006Z,18.13
2018-04-14T10:27:40.048Z,18.30
2018-04-14T10:28:46.387Z,18.29
2018-04-14T10:29:54.975Z,18.12
2018-04-14T10:31:06.251Z,18.42
2018-04-14T10:32:13.473Z,18.41
2018-04-14T10:33:19.392Z,18.30
2018-04-14T10:34:25.722Z,18.31
2018-04-14T10:35:32.048Z,18.39
2018-04-14T10:36:38.603Z,18.51
2018-04-14T10:37:44.950Z,18.63
2018-04-14T10:38:51.496Z,18.86
2018-04-14T10:39:57.792Z,18.67
2018-04-14T10:41:04.100Z,18.33
2018-04-14T10:42:10.458Z,18.30
2018-04-14T10:43:16.740Z,18.23
2018-04-14T10:44:23.057Z,18.19
2018-04-14T10:45:29.350Z,18.11
2018-04-14T10:46:35.689Z,18.25
2018-04-14T10:47:42.557Z,18.32
2018-04-14T10:48:49.767Z,18.53
2018-04-14T10:49:56.063Z,18.63
2018-04-14T10:51:06.825Z,18.68
2018-04-14T10:52:16.591Z,18.62
2018-04-14T10:53:22.959Z,18.25
2018-04-14T10:54:29.275Z,18.04
2018-04-14T10:55:35.852Z,18.01
2018-04-14T10:56:41.640Z,17.85
2018-04-14T10:57:47.935Z,17.83
2018-04-14T10:58:54.217Z,18.02
2018-04-14T11:00:00.531Z,18.01
2018-04-14T11:01:06.900Z,18.18
2018-04-14T11:02:12.840Z,18.36
2018-04-14T11:03:21.345Z,18.37
2018-04-14T11:04:27.851Z,18.41
2018-04-14T11:05:34.138Z,18.50
2018-04-14T11:06:40.444Z,18.34
2018-04-14T11:07:46.785Z,18.34
2018-04-14T11:08:53.078Z,18.37
2018-04-14T11:09:59.576Z,18.35
2018-04-14T11:11:05.925Z,18.18
2018-04-14T11:12:15.741Z,18.24
2018-04-14T11:13:27.098Z,18.44
2018-04-14T11:14:33.361Z,18.55
2018-04-14T11:15:39.631Z,18.75
2018-04-14T11:16:45.929Z,18.55
2018-04-14T11:17:53.344Z,18.55
2018-04-14T11:18:59.802Z,18.69
2018-04-14T11:20:06.373Z,18.80
2018-04-14T11:21:12.552Z,18.85
2018-04-14T11:22:18.834Z,19.01
2018-04-14T11:23:25.193Z,18.86
2018-04-14T11:24:31.471Z,18.70
2018-04-14T11:25:37.787Z,18.70
2018-04-14T11:26:44.066Z,18.91
2018-04-14T11:27:50.404Z,19.00
2018-04-14T11:28:56.707Z,19.06
2018-04-14T11:30:02.827Z,19.24
2018-04-14T11:31:09.155Z,19.22
2018-04-14T11:32:15.421Z,19.35
2018-04-14T11:33:21.683Z,19.50
2018-04-14T11:34:29.774Z,19.49
2018-04-14T11:35:38.030Z,19.62
2018-04-14T11:36:44.452Z,19.72
2018-04-14T11:37:50.695Z,19.42
2018-04-14T11:38:57.055Z,19.36
2018-04-14T11:40:03.311Z,19.42
2018-04-14T11:41:09.374Z,19.53
2018-04-14T11:42:15.626Z,19.59
2018-04-14T11:43:22.004Z,19.75
2018-04-14T11:44:28.564Z,19.69
2018-04-14T11:45:35.150Z,19.49
2018-04-14T11:46:41.387Z,19.41
2018-04-14T11:47:47.743Z,19.27
2018-04-14T11:48:54.040Z,19.33
2018-04-14T11:50:02.352Z,19.34
2018-04-14T11:51:10.527Z,19.24
2018-04-14T11:52:16.878Z,19.26
2018-04-14T11:53:23.147Z,19.41
2018-04-14T11:54:29.512Z,19.13
2018-04-14T11:55:35.802Z,19.22
2018-04-14T11:56:42.114Z,18.97
2018-04-14T11:57:48.382Z,19.01
2018-04-14T11:58:54.739Z,19.21
2018-04-14T12:00:01.041Z,19.22
2018-04-14T12:01:07.363Z,19.30
2018-04-14T12:02:13.643Z,19.49
2018-04-14T12:03:19.956Z,19.58
2018-04-14T12:04:26.352Z,19.61
2018-04-14T12:05:33.336Z,19.56
2018-04-14T12:06:41.583Z,19.34
2018-04-14T12:07:48.286Z,19.19
2018-04-14T12:08:54.461Z,19.11
2018-04-14T12:10:00.829Z,19.06
2018-04-14T12:11:07.351Z,18.94
2018-04-14T12:12:13.729Z,18.95
2018-04-14T12:13:20.038Z,18.89
2018-04-14T12:14:26.998Z,18.74
2018-04-14T12:15:33.921Z,18.81
2018-04-14T12:16:40.211Z,18.90
2018-04-14T12:17:46.523Z,18.92
2018-04-14T12:18:53.684Z,18.91
2018-04-14T12:20:00.170Z,18.95
2018-04-14T12:21:06.514Z,18.96
2018-04-14T12:22:15.330Z,19.04
2018-04-14T12:23:21.507Z,19.07
2018-04-14T12:24:27.768Z,19.15
2018-04-14T12:25:35.135Z,19.11
2018-04-14T12:26:42.882Z,19.00
2018-04-14T12:27:49.151Z,19.06
2018-04-14T12:28:55.361Z,19.22
2018-04-14T12:30:01.705Z,19.17
2018-04-14T12:31:07.972Z,19.21
2018-04-14T12:32:14.179Z,19.34
2018-04-14T12:33:20.687Z,19.34
2018-04-14T12:34:26.910Z,19.33
2018-04-14T12:35:33.250Z,19.46
2018-04-14T12:36:39.309Z,19.49
2018-04-14T12:37:45.539Z,19.49
2018-04-14T12:38:51.878Z,19.48
2018-04-14T12:39:57.883Z,19.52
2018-04-14T12:41:04.288Z,19.52
2018-04-14T12:42:10.227Z,19.28
2018-04-14T12:43:16.501Z,19.37
2018-04-14T12:44:22.706Z,19.32
2018-04-14T12:45:29.149Z,19.09
2018-04-14T12:46:35.456Z,19.17
2018-04-14T12:47:41.763Z,19.29
2018-04-14T12:48:48.042Z,19.35
2018-04-14T12:49:54.839Z,19.11
2018-04-14T12:51:01.115Z,18.97
2018-04-14T12:52:07.203Z,18.90
2018-04-14T12:53:13.599Z,18.86
2018-04-14T12:54:19.774Z,18.91
2018-04-14T12:55:26.072Z,18.88
2018-04-14T12:56:32.375Z,18.89
2018-04-14T12:57:40.860Z,19.07
2018-04-14T12:58:47.019Z,19.15
2018-04-14T12:59:53.324Z,19.12
2018-04-14T13:00:59.692Z,19.15
2018-04-14T13:02:05.614Z,19.08
2018-04-14T13:03:11.839Z,19.22
2018-04-14T13:04:18.067Z,19.34
2018-04-14T13:05:24.391Z,19.50
2018-04-14T13:06:30.666Z,19.52
2018-04-14T13:07:37.006Z,19.48
2018-04-14T13:08:43.299Z,19.52
2018-04-14T13:09:49.511Z,19.46
2018-04-14T13:10:55.844Z,19.50
2018-04-14T13:12:02.132Z,19.69
2018-04-14T13:13:10.995Z,19.60
2018-04-14T13:14:18.489Z,19.67
2018-04-14T13:15:24.745Z,19.64
2018-04-14T13:16:30.975Z,19.63
2018-04-14T13:17:37.194Z,19.72
2018-04-14T13:18:43.500Z,19.69
2018-04-14T13:19:49.802Z,19.77
2018-04-14T13:20:56.142Z,19.92
2018-04-14T13:22:02.493Z,19.98
2018-04-14T13:23:09.254Z,20.04
2018-04-14T13:24:15.387Z,20.02
2018-04-14T13:25:21.654Z,19.98
2018-04-14T13:26:28.103Z,20.16
2018-04-14T13:27:34.379Z,20.33
2018-04-14T13:28:47.115Z,20.54
2018-04-14T13:29:54.243Z,20.47
2018-04-14T13:31:00.116Z,20.14
2018-04-14T13:32:07.074Z,19.94
2018-04-14T13:33:13.014Z,19.96
2018-04-14T13:34:18.970Z,19.88
2018-04-14T13:35:25.440Z,19.74
2018-04-14T13:36:31.419Z,19.68
2018-04-14T13:37:37.685Z,19.72
2018-04-14T13:38:48.300Z,19.91
2018-04-14T13:39:54.754Z,19.98
2018-04-14T13:41:00.964Z,20.09
2018-04-14T13:42:07.218Z,20.27
2018-04-14T13:43:13.510Z,20.25
2018-04-14T13:44:21.088Z,20.28
2018-04-14T13:45:29.400Z,20.47
2018-04-14T13:46:35.380Z,20.49
2018-04-14T13:47:41.634Z,20.69
2018-04-14T13:48:47.966Z,20.66
2018-04-14T13:49:54.244Z,20.58
2018-04-14T13:51:00.484Z,20.78
2018-04-14T13:52:06.827Z,20.56
2018-04-14T13:53:13.078Z,20.53
2018-04-14T13:54:19.405Z,20.44
2018-04-14T13:55:25.685Z,20.44
2018-04-14T13:56:31.895Z,20.48
2018-04-14T13:57:38.159Z,20.63
2018-04-14T13:58:44.447Z,20.58
2018-04-14T13:59:50.771Z,20.68
2018-04-14T14:00:57.603Z,20.61
2018-04-14T14:02:04.504Z,20.70
2018-04-14T14:03:11.373Z,20.40
2018-04-14T14:04:17.653Z,20.35
2018-04-14T14:05:24.077Z,20.49
2018-04-14T14:06:30.360Z,20.41
2018-04-14T14:07:36.673Z,20.49
2018-04-14T14:08:42.900Z,20.46
2018-04-14T14:09:48.826Z,20.38
2018-04-14T14:10:55.101Z,20.38
2018-04-14T14:12:01.418Z,20.41
2018-04-14T14:13:07.838Z,20.39
2018-04-14T14:14:13.789Z,20.30
2018-04-14T14:15:20.030Z,20.35
2018-04-14T14:16:26.251Z,20.58
2018-04-14T14:17:32.335Z,20.64
2018-04-14T14:18:38.599Z,20.59
2018-04-14T14:19:44.883Z,20.67
2018-04-14T14:20:51.587Z,20.87
2018-04-14T14:21:57.785Z,20.77
2018-04-14T14:23:04.000Z,20.65
2018-04-14T14:24:10.014Z,20.50
2018-04-14T14:25:16.242Z,20.48
2018-04-14T14:26:22.615Z,20.47
2018-04-14T14:27:28.859Z,20.56
2018-04-14T14:28:35.071Z,20.75
2018-04-14T14:29:41.379Z,20.76
2018-04-14T14:30:47.637Z,20.68
2018-04-14T14:31:53.891Z,20.52
2018-04-14T14:33:00.250Z,20.48
2018-04-14T14:34:06.560Z,20.43
2018-04-14T14:35:16.944Z,20.50
2018-04-14T14:36:25.306Z,20.50
2018-04-14T14:37:31.498Z,20.66
2018-04-14T14:38:37.816Z,20.70
2018-04-14T14:39:44.027Z,20.75
2018-04-14T14:40:51.339Z,20.62
2018-04-14T14:41:57.669Z,20.72
2018-04-14T14:43:03.956Z,20.82
2018-04-14T14:44:10.349Z,20.96
2018-04-14T14:45:16.693Z,20.74
2018-04-14T14:46:23.056Z,20.77
2018-04-14T14:47:31.455Z,20.77